createdAt,value
2019-05-10T00:00:57.809Z,99.90
2019-05-10T00:03:42.920Z,99.90
2019-05-10T00:06:29.014Z,99.90
2019-05-10T00:08:55.607Z,99.90
2019-05-10T00:11:29.693Z,99.90
2019-05-10T00:14:14.675Z,99.90
2019-05-10T00:16:41.734Z,99.90
2019-05-10T00:19:08.542Z,99.90
2019-05-10T00:21:35.504Z,99.90
2019-05-10T00:24:02.382Z,99.90
2019-05-10T00:26:29.239Z,99.90
2019-05-10T00:28:56.030Z,99.90
2019-05-10T00:31:23.988Z,99.90
2019-05-10T00:33:50.698Z,99.90
2019-05-10T00:36:17.832Z,99.90
2019-05-10T00:38:44.684Z,99.90
2019-05-10T00:41:11.456Z,99.90
2019-05-10T00:43:38.119Z,99.90
2019-05-10T00:46:05.883Z,99.90
2019-05-10T00:48:32.795Z,99.90
2019-05-10T00:50:59.579Z,99.90
2019-05-10T00:53:26.485Z,99.90
2019-05-10T00:55:53.162Z,99.90
2019-05-10T00:58:19.869Z,99.90
2019-05-10T01:00:46.520Z,99.90
2019-05-10T01:03:13.304Z,99.90
2019-05-10T01:05:40.122Z,99.90
2019-05-10T01:08:06.783Z,99.90
2019-05-10T01:10:33.640Z,99.90
2019-05-10T01:13:00.358Z,99.90
2019-05-10T01:15:27.100Z,99.90
2019-05-10T01:17:53.760Z,99.90
2019-05-10T01:20:20.626Z,99.90
2019-05-10T01:22:47.136Z,99.90
2019-05-10T01:25:13.896Z,99.90
2019-05-10T01:27:40.674Z,99.90
2019-05-10T01:30:08.122Z,99.90
2019-05-10T01:32:35.063Z,99.90
2019-05-10T01:35:03.141Z,99.90
2019-05-10T01:37:29.884Z,99.90
2019-05-10T01:39:56.646Z,99.90
2019-05-10T01:42:23.370Z,99.90
2019-05-10T01:44:50.146Z,99.90
2019-05-10T01:47:16.783Z,99.90
2019-05-10T01:49:43.438Z,99.90
2019-05-10T01:52:10.156Z,99.90
2019-05-10T01:54:38.008Z,99.90
2019-05-10T01:57:04.796Z,99.90
2019-05-10T01:59:31.444Z,99.90
2019-05-10T02:01:58.230Z,99.90
2019-05-10T02:04:24.981Z,99.90
2019-05-10T02:06:51.782Z,99.90
2019-05-10T02:09:18.534Z,99.90
2019-05-10T02:11:46.377Z,99.90
2019-05-10T02:14:13.113Z,99.90
2019-05-10T02:16:39.868Z,99.90
2019-05-10T02:19:06.627Z,99.90
2019-05-10T02:21:33.374Z,99.90
2019-05-10T02:24:00.102Z,99.90
2019-05-10T02:26:26.776Z,99.90
2019-05-10T02:28:53.618Z,99.90
2019-05-10T02:31:21.645Z,99.90
2019-05-10T02:33:48.839Z,99.90
2019-05-10T02:36:15.488Z,99.90
2019-05-10T02:38:42.237Z,99.90
2019-05-10T02:41:08.914Z,99.90
2019-05-10T02:43:35.568Z,99.90
2019-05-10T02:46:02.339Z,99.90
2019-05-10T02:48:30.204Z,99.90
2019-05-10T02:50:56.850Z,99.90
2019-05-10T02:53:23.496Z,99.90
2019-05-10T02:55:51.060Z,99.90
2019-05-10T02:58:19.748Z,99.90
2019-05-10T03:00:48.634Z,99.90
2019-05-10T03:03:16.320Z,99.90
2019-05-10T03:05:48.223Z,99.90
2019-05-10T03:08:13.337Z,99.90
2019-05-10T03:10:43.756Z,99.90
2019-05-10T03:13:14.226Z,99.90
2019-05-10T03:15:43.020Z,99.90
2019-05-10T03:18:09.780Z,99.90
2019-05-10T03:20:36.778Z,99.90
2019-05-10T03:23:07.080Z,99.90
2019-05-10T03:25:33.836Z,99.90
2019-05-10T03:28:00.742Z,99.90
2019-05-10T03:30:27.618Z,99.90
2019-05-10T03:32:54.376Z,99.90
2019-05-10T03:35:21.243Z,99.90
2019-05-10T03:37:48.363Z,99.90
2019-05-10T03:40:15.209Z,99.90
2019-05-10T03:42:42.717Z,99.90
2019-05-10T03:45:10.713Z,99.90
2019-05-10T03:47:37.382Z,99.90
2019-05-10T03:50:05.458Z,99.90
2019-05-10T03:52:32.324Z,99.90
2019-05-10T03:54:59.100Z,99.90
2019-05-10T03:57:25.918Z,99.90
2019-05-10T03:59:52.681Z,99.90
2019-05-10T04:02:19.440Z,99.90
2019-05-10T04:04:46.302Z,99.90
2019-05-10T04:07:13.214Z,99.90
2019-05-10T04:09:39.978Z,99.90
2019-05-10T04:12:06.736Z,99.90
2019-05-10T04:14:33.524Z,99.90
2019-05-10T04:17:00.204Z,99.90
2019-05-10T04:19:26.884Z,99.90
2019-05-10T04:21:53.723Z,99.90
2019-05-10T04:24:20.449Z,99.90
2019-05-10T04:26:47.235Z,99.90
2019-05-10T04:29:13.932Z,99.90
2019-05-10T04:31:41.032Z,99.90
2019-05-10T04:34:07.932Z,99.90
2019-05-10T04:36:34.627Z,99.90
2019-05-10T04:39:01.356Z,99.90
2019-05-10T04:41:29.236Z,99.90
2019-05-10T04:43:55.986Z,99.90
2019-05-10T04:46:22.809Z,99.90
2019-05-10T04:48:49.669Z,99.90
2019-05-10T04:51:16.539Z,99.90
2019-05-10T04:53:43.284Z,99.90
2019-05-10T04:56:10.221Z,99.90
2019-05-10T04:58:36.885Z,99.90
2019-05-10T05:01:03.734Z,99.90
2019-05-10T05:03:30.624Z,99.90
2019-05-10T05:05:57.487Z,99.90
2019-05-10T05:08:24.230Z,99.90
2019-05-10T05:10:52.046Z,99.90
2019-05-10T05:13:18.785Z,99.90
2019-05-10T05:15:45.463Z,99.90
2019-05-10T05:18:12.367Z,99.90
2019-05-10T05:20:40.457Z,99.90
2019-05-10T05:23:07.110Z,99.90
2019-05-10T05:25:35.320Z,99.90
2019-05-10T05:28:08.107Z,99.90
2019-05-10T05:30:31.302Z,99.90
2019-05-10T05:32:58.191Z,99.90
2019-05-10T05:35:25.061Z,99.90
2019-05-10T05:37:51.915Z,99.90
2019-05-10T05:40:18.597Z,99.90
2019-05-10T05:42:45.375Z,99.90
2019-05-10T05:45:12.033Z,99.90
2019-05-10T05:47:42.150Z,99.90
2019-05-10T05:50:07.888Z,99.90
2019-05-10T05:52:34.541Z,99.90
2019-05-10T05:55:01.223Z,99.90
2019-05-10T05:57:29.572Z,99.90
2019-05-10T05:59:57.553Z,99.90
2019-05-10T06:02:25.047Z,99.90
2019-05-10T06:04:51.682Z,99.90
2019-05-10T06:07:18.557Z,99.90
2019-05-10T06:09:45.259Z,99.90
2019-05-10T06:12:12.676Z,99.90
2019-05-10T06:14:43.142Z,99.50
2019-05-10T06:17:08.926Z,99.90
2019-05-10T06:19:35.593Z,99.90
2019-05-10T06:22:04.686Z,99.10
2019-05-10T06:24:34.189Z,99.10
2019-05-10T06:27:03.360Z,99.10
2019-05-10T06:29:28.402Z,99.00
2019-05-10T06:31:58.665Z,99.90
2019-05-10T06:34:23.685Z,99.20
2019-05-10T06:36:50.378Z,99.90
2019-05-10T06:39:17.313Z,99.40
2019-05-10T06:41:44.226Z,98.40
2019-05-10T06:44:11.028Z,97.60
2019-05-10T06:46:37.678Z,96.60
2019-05-10T06:49:08.356Z,96.60
2019-05-10T06:51:34.763Z,97.10
2019-05-10T06:54:02.830Z,97.00
2019-05-10T06:56:30.571Z,96.10
2019-05-10T06:59:11.213Z,95.80
2019-05-10T07:01:25.896Z,94.80
2019-05-10T07:03:53.698Z,93.80
2019-05-10T07:06:20.352Z,95.80
2019-05-10T07:08:51.844Z,94.60
2019-05-10T07:11:15.889Z,93.70
2019-05-10T07:13:47.255Z,93.60
2019-05-10T07:16:15.013Z,94.10
2019-05-10T07:18:39.681Z,93.50
2019-05-10T07:21:08.578Z,92.70
2019-05-10T07:23:39.020Z,92.60
2019-05-10T07:26:03.426Z,92.30
2019-05-10T07:28:30.287Z,92.50
2019-05-10T07:30:57.204Z,91.80
2019-05-10T07:33:23.955Z,91.30
2019-05-10T07:35:50.726Z,86.10
2019-05-10T07:38:17.497Z,82.80
2019-05-10T07:40:44.249Z,84.20
2019-05-10T07:43:10.973Z,83.00
2019-05-10T07:45:37.658Z,70.40
2019-05-10T07:48:08.129Z,69.30
2019-05-10T07:50:33.913Z,71.10
2019-05-10T07:53:00.694Z,70.80
2019-05-10T07:55:29.743Z,66.40
2019-05-10T07:57:59.045Z,64.10
2019-05-10T08:00:25.450Z,66.00
2019-05-10T08:03:00.823Z,65.90
2019-05-10T08:05:20.735Z,64.00
2019-05-10T08:07:49.454Z,59.00
2019-05-10T08:10:16.000Z,62.00
2019-05-10T08:12:45.626Z,63.80
2019-05-10T08:15:11.476Z,69.20
2019-05-10T08:17:43.307Z,73.80
2019-05-10T08:20:09.021Z,67.90
2019-05-10T08:22:41.326Z,69.80
2019-05-10T08:25:06.304Z,71.70
2019-05-10T08:27:33.094Z,71.10
2019-05-10T08:32:32.211Z,66.00
2019-05-10T08:34:57.438Z,60.20
2019-05-10T08:37:33.109Z,63.60
2019-05-10T08:39:55.972Z,64.50
2019-05-10T08:42:38.010Z,58.70
2019-05-10T08:44:54.190Z,61.90
2019-05-10T08:47:25.023Z,60.20
2019-05-10T08:50:00.187Z,59.40
2019-05-10T08:52:19.316Z,58.00
2019-05-10T08:54:44.421Z,56.40
2019-05-10T09:00:05.277Z,57.10
2019-05-10T09:02:29.292Z,57.20
2019-05-10T09:04:54.452Z,55.80
2019-05-10T09:07:23.182Z,56.40
2019-05-10T09:09:50.231Z,56.50
2019-05-10T09:12:19.144Z,55.50
2019-05-10T09:14:48.589Z,53.50
2019-05-10T09:17:22.631Z,53.50
2019-05-10T09:19:44.209Z,52.30
2019-05-10T09:22:12.945Z,50.60
2019-05-10T09:24:43.219Z,51.90
2019-05-10T09:27:08.296Z,51.20
2019-05-10T09:29:37.189Z,51.40
2019-05-10T09:32:06.159Z,51.70
2019-05-10T09:34:32.567Z,51.90
2019-05-10T09:36:59.395Z,49.30
2019-05-10T09:39:26.044Z,49.10
2019-05-10T09:41:53.012Z,48.70
2019-05-10T09:44:19.825Z,50.40
2019-05-10T09:46:46.501Z,47.50
2019-05-10T09:49:17.769Z,48.00
2019-05-10T09:51:42.396Z,50.10
2019-05-10T09:54:09.218Z,45.70
2019-05-10T09:56:42.061Z,45.70
2019-05-10T09:59:04.671Z,44.80
2019-05-10T10:01:37.135Z,43.40
2019-05-10T10:04:02.804Z,43.90
2019-05-10T10:14:18.023Z,47.00
2019-05-10T10:16:48.862Z,42.90
2019-05-10T10:19:13.474Z,44.70
2019-05-10T10:21:40.249Z,43.50
2019-05-10T10:24:15.504Z,44.20
2019-05-10T10:26:37.918Z,42.80
2019-05-10T10:29:07.123Z,42.10
2019-05-10T10:31:33.816Z,43.40
2019-05-10T10:34:03.087Z,41.90
2019-05-10T10:36:30.304Z,43.70
2019-05-10T10:38:57.111Z,41.10
2019-05-10T10:41:26.363Z,41.90
2019-05-10T10:43:53.452Z,43.50
2019-05-10T10:46:20.297Z,41.40
2019-05-10T10:48:49.036Z,41.40
2019-05-10T10:51:18.044Z,42.30
2019-05-10T10:53:46.875Z,41.20
2019-05-10T10:56:12.972Z,42.40
2019-05-10T10:58:39.790Z,38.90
2019-05-10T11:01:10.791Z,40.40
2019-05-10T11:03:35.680Z,44.30
2019-05-10T11:06:02.588Z,45.90
2019-05-10T11:08:32.920Z,45.00
2019-05-10T11:11:00.412Z,40.50
2019-05-10T11:13:41.469Z,40.60
2019-05-10T11:15:58.835Z,37.20
2019-05-10T11:18:23.975Z,39.90
2019-05-10T11:20:53.869Z,38.30
2019-05-10T11:23:24.611Z,38.50
2019-05-10T11:25:54.749Z,36.50
2019-05-10T11:28:16.985Z,37.40
2019-05-10T11:30:43.792Z,37.00
2019-05-10T11:33:23.844Z,36.90
2019-05-10T11:35:41.524Z,36.70
2019-05-10T11:38:12.936Z,36.60
2019-05-10T11:40:36.453Z,38.00
2019-05-10T11:43:03.442Z,39.10
2019-05-10T11:45:32.248Z,40.00
2019-05-10T11:48:02.048Z,40.40
2019-05-10T11:50:34.890Z,41.20
2019-05-10T11:52:57.909Z,43.50
2019-05-10T11:55:24.770Z,43.30
2019-05-10T11:58:01.976Z,44.50
2019-05-10T12:00:29.148Z,43.20
2019-05-10T12:05:22.770Z,47.40
2019-05-10T12:07:47.016Z,47.50
2019-05-10T12:12:59.752Z,50.10
2019-05-10T12:15:13.771Z,50.70
2019-05-10T12:17:43.815Z,50.80
2019-05-10T12:20:16.334Z,51.50
2019-05-10T12:22:40.440Z,51.60
2019-05-10T12:25:31.959Z,51.70
2019-05-10T12:26:04.653Z,46.10
2019-05-10T12:26:05.227Z,49.00
2019-05-10T12:27:45.258Z,50.40
2019-05-10T12:30:05.191Z,51.10
2019-05-10T12:32:33.458Z,52.00
2019-05-10T12:35:01.444Z,53.30
2019-05-10T12:37:30.679Z,52.90
2019-05-10T12:40:06.227Z,52.60
2019-05-10T12:42:25.770Z,51.60
2019-05-10T12:44:55.427Z,52.50
2019-05-10T12:47:21.470Z,52.10
2019-05-10T12:49:48.310Z,52.60
2019-05-10T12:52:22.043Z,51.90
2019-05-10T12:54:47.405Z,52.50
2019-05-10T12:57:14.075Z,52.60
2019-05-10T12:59:40.818Z,55.10
2019-05-10T13:02:10.749Z,54.20
2019-05-10T13:04:40.628Z,55.00
2019-05-10T13:07:04.923Z,55.90
2019-05-10T13:09:39.900Z,56.60
2019-05-10T13:12:06.002Z,56.50
2019-05-10T13:14:29.357Z,56.10
2019-05-10T13:16:56.490Z,56.70
2019-05-10T13:19:23.150Z,56.40
2019-05-10T13:21:53.809Z,57.30
2019-05-10T13:24:18.714Z,58.30
2019-05-10T13:26:45.600Z,58.20
2019-05-10T13:29:12.394Z,59.80
2019-05-10T13:31:42.939Z,60.00
2019-05-10T13:34:07.834Z,60.80
2019-05-10T13:36:37.267Z,61.50
2019-05-10T13:39:05.266Z,62.60
2019-05-10T13:41:32.139Z,63.50
2019-05-10T13:44:04.365Z,67.10
2019-05-10T13:46:27.708Z,67.90
2019-05-10T13:48:54.555Z,68.20
2019-05-10T13:51:21.312Z,72.30
2019-05-10T13:53:48.332Z,67.30
2019-05-10T13:56:15.089Z,64.80
2019-05-10T13:58:42.010Z,63.30
2019-05-10T14:01:13.324Z,65.40
2019-05-10T14:03:45.161Z,66.40
2019-05-10T14:06:06.047Z,64.50
2019-05-10T14:08:32.883Z,65.00
2019-05-10T14:11:01.373Z,63.50
2019-05-10T14:13:28.763Z,65.10
2019-05-10T14:15:55.646Z,66.30
2019-05-10T14:18:22.396Z,66.90
2019-05-10T14:20:49.290Z,69.30
2019-05-10T14:23:17.978Z,68.20
2019-05-10T14:25:45.106Z,60.30
2019-05-10T14:28:15.609Z,59.60
2019-05-10T14:30:40.643Z,59.50
2019-05-10T14:33:08.678Z,56.40
2019-05-10T14:35:36.132Z,56.50
2019-05-10T14:38:08.713Z,56.80
2019-05-10T14:40:31.652Z,58.00
2019-05-10T14:42:59.558Z,58.30
2019-05-10T14:45:26.474Z,60.30
2019-05-10T14:47:53.454Z,61.40
2019-05-10T14:50:26.122Z,60.30
2019-05-10T14:52:48.832Z,61.90
2019-05-10T14:55:15.674Z,60.10
2019-05-10T14:57:42.538Z,61.20
2019-05-10T15:00:09.223Z,60.80
2019-05-10T15:02:36.069Z,61.20
2019-05-10T15:05:08.983Z,60.50
2019-05-10T15:07:33.408Z,61.00
2019-05-10T15:10:02.237Z,60.30
2019-05-10T15:12:28.889Z,58.80
2019-05-10T15:14:56.110Z,59.30
2019-05-10T15:17:22.961Z,59.50
2019-05-10T15:19:57.314Z,59.80
2019-05-10T15:22:22.852Z,59.00
2019-05-10T15:24:47.209Z,57.80
2019-05-10T15:27:16.250Z,59.20
2019-05-10T15:29:42.620Z,59.90
2019-05-10T15:32:09.365Z,59.40
2019-05-10T15:34:36.140Z,59.10
2019-05-10T15:37:09.101Z,59.50
2019-05-10T15:39:31.401Z,58.20
2019-05-10T15:41:59.124Z,60.10
2019-05-10T15:44:31.414Z,59.20
2019-05-10T15:46:56.398Z,59.90
2019-05-10T15:49:24.475Z,62.20
2019-05-10T15:51:56.802Z,61.70
2019-05-10T15:54:20.003Z,62.90
2019-05-10T15:56:46.867Z,64.60
2019-05-10T15:59:19.410Z,65.10
2019-05-10T16:01:45.434Z,65.60
2019-05-10T16:04:10.914Z,65.70
2019-05-10T16:06:39.446Z,65.50
2019-05-10T16:09:16.927Z,65.90
2019-05-10T16:11:35.596Z,65.00
2019-05-10T16:14:04.623Z,64.80
2019-05-10T16:16:37.223Z,65.30
2019-05-10T16:19:00.169Z,66.40
2019-05-10T16:21:26.964Z,69.00
2019-05-10T16:23:53.635Z,70.50
2019-05-10T16:26:22.804Z,71.00
2019-05-10T16:28:56.549Z,71.70
2019-05-10T16:31:17.546Z,75.30
2019-05-10T16:33:48.366Z,76.20
2019-05-10T16:36:12.988Z,78.80
2019-05-10T16:38:39.858Z,78.20
2019-05-10T16:41:06.541Z,79.70
2019-05-10T16:43:33.384Z,80.90
2019-05-10T16:46:00.139Z,80.70
2019-05-10T16:48:28.379Z,76.50
2019-05-10T16:50:55.311Z,76.90
2019-05-10T16:53:22.084Z,80.00
2019-05-10T16:55:48.891Z,77.70
2019-05-10T16:58:17.966Z,76.30
2019-05-10T17:00:46.355Z,76.20
2019-05-10T17:03:13.103Z,73.10
2019-05-10T17:05:53.077Z,74.60
2019-05-10T17:08:11.023Z,71.90
2019-05-10T17:10:37.759Z,69.30
2019-05-10T17:13:06.534Z,72.40
2019-05-10T17:15:33.914Z,68.70
2019-05-10T17:18:01.783Z,69.10
2019-05-10T17:20:28.496Z,69.50
2019-05-10T17:23:01.503Z,72.00
2019-05-10T17:25:23.956Z,73.60
2019-05-10T17:27:57.521Z,74.80
2019-05-10T17:30:21.649Z,76.40
2019-05-10T17:32:48.329Z,77.20
2019-05-10T17:35:15.199Z,77.20
2019-05-10T17:37:42.003Z,79.50
2019-05-10T17:40:12.062Z,80.30
2019-05-10T17:42:41.161Z,81.60
2019-05-10T17:45:07.473Z,83.50
2019-05-10T17:47:34.436Z,84.20
2019-05-10T17:50:01.068Z,84.40
2019-05-10T17:52:27.919Z,84.20
2019-05-10T17:54:55.771Z,83.40
2019-05-10T17:57:22.576Z,83.20
2019-05-10T17:59:52.807Z,85.10
2019-05-10T18:02:18.114Z,87.60
2019-05-10T18:04:45.014Z,89.50
2019-05-10T18:07:11.606Z,90.00
2019-05-10T18:09:38.390Z,90.20
2019-05-10T18:12:05.602Z,90.30
2019-05-10T18:14:32.414Z,90.80
2019-05-10T18:16:59.101Z,90.80
2019-05-10T18:19:26.556Z,90.50
2019-05-10T18:21:54.926Z,90.50
2019-05-10T18:24:22.450Z,90.90
2019-05-10T18:26:49.229Z,91.40
2019-05-10T18:29:16.024Z,92.20
2019-05-10T18:31:54.631Z,92.00
2019-05-10T18:34:11.413Z,92.00
2019-05-10T18:36:50.990Z,92.00
2019-05-10T18:39:09.114Z,92.20
2019-05-10T18:41:35.973Z,92.20
2019-05-10T18:44:03.045Z,92.50
2019-05-10T18:46:29.936Z,92.60
2019-05-10T18:48:56.776Z,92.70
2019-05-10T18:51:24.337Z,93.10
2019-05-10T18:53:52.178Z,93.00
2019-05-10T18:56:19.084Z,93.20
2019-05-10T18:58:45.931Z,93.50
2019-05-10T19:01:12.703Z,93.40
2019-05-10T19:03:39.486Z,93.70
2019-05-10T19:06:11.162Z,94.40
2019-05-10T19:08:36.056Z,94.30
2019-05-10T19:11:03.920Z,94.70
2019-05-10T19:13:34.199Z,94.60
2019-05-10T19:15:59.909Z,94.70
2019-05-10T19:18:26.699Z,94.80
2019-05-10T19:20:55.148Z,94.80
2019-05-10T19:23:22.041Z,95.00
2019-05-10T19:25:51.868Z,94.80
2019-05-10T19:28:21.042Z,95.60
2019-05-10T19:30:46.374Z,95.80
2019-05-10T19:33:13.158Z,95.40
2019-05-10T19:35:39.900Z,95.40
2019-05-10T19:38:06.786Z,96.00
2019-05-10T19:40:33.749Z,96.20
2019-05-10T19:43:00.501Z,96.30
2019-05-10T19:45:30.964Z,96.00
2019-05-10T19:47:57.188Z,95.80
2019-05-10T19:50:30.332Z,95.90
2019-05-10T19:52:52.709Z,96.10
2019-05-10T19:55:21.693Z,95.70
2019-05-10T19:57:49.626Z,95.80
2019-05-10T20:00:16.827Z,96.70
2019-05-10T20:02:43.510Z,96.20
2019-05-10T20:05:10.288Z,96.10
2019-05-10T20:07:45.800Z,96.40
2019-05-10T20:10:07.675Z,96.60
2019-05-10T20:12:34.186Z,96.70
2019-05-10T20:15:01.024Z,96.70
2019-05-10T20:17:27.911Z,96.30
2019-05-10T20:19:54.748Z,97.10
2019-05-10T20:22:21.628Z,97.00
2019-05-10T20:24:48.513Z,97.10
2019-05-10T20:27:15.400Z,96.80
2019-05-10T20:29:42.266Z,96.90
2019-05-10T20:32:10.221Z,96.70
2019-05-10T20:34:37.010Z,97.00
2019-05-10T20:37:03.796Z,97.30
2019-05-10T20:39:30.553Z,97.20
2019-05-10T20:41:57.524Z,97.20
2019-05-10T20:44:24.468Z,97.30
2019-05-10T20:46:51.262Z,97.00
2019-05-10T20:49:18.211Z,97.00
2019-05-10T20:51:45.966Z,97.40
2019-05-10T20:54:12.733Z,97.30
2019-05-10T20:56:39.529Z,97.70
2019-05-10T20:59:06.238Z,97.50
2019-05-10T21:01:33.022Z,97.20
2019-05-10T21:03:59.860Z,97.60
2019-05-10T21:06:26.671Z,97.40
2019-05-10T21:08:53.458Z,97.10
2019-05-10T21:11:20.232Z,97.30
2019-05-10T21:13:47.023Z,97.80
2019-05-10T21:16:13.669Z,98.00
2019-05-10T21:18:40.546Z,98.20
2019-05-10T21:21:07.389Z,98.10
2019-05-10T21:23:34.140Z,98.20
2019-05-10T21:26:00.905Z,98.20
2019-05-10T21:28:29.895Z,98.00
2019-05-10T21:30:56.585Z,98.30
2019-05-10T21:33:23.351Z,98.30
2019-05-10T21:35:50.283Z,98.20
2019-05-10T21:38:31.631Z,98.40
2019-05-10T21:40:45.724Z,98.40
2019-05-10T21:43:12.733Z,97.90
2019-05-10T21:45:39.524Z,98.20
2019-05-10T21:48:06.370Z,98.60
2019-05-10T21:50:33.196Z,98.30
2019-05-10T21:53:00.001Z,98.30
2019-05-10T21:55:26.727Z,98.40
2019-05-10T21:57:53.518Z,98.40
2019-05-10T22:00:24.124Z,98.40
2019-05-10T22:02:52.851Z,98.40
2019-05-10T22:05:19.792Z,98.90
2019-05-10T22:07:46.763Z,98.70
2019-05-10T22:10:14.527Z,99.00
2019-05-10T22:12:41.473Z,98.80
2019-05-10T22:15:08.234Z,99.30
2019-05-10T22:17:35.478Z,99.60
2019-05-10T22:20:05.968Z,99.80
2019-05-10T22:22:32.758Z,99.70
2019-05-10T22:24:59.577Z,99.40
2019-05-10T22:27:26.316Z,99.30
2019-05-10T22:29:53.174Z,99.50
2019-05-10T22:32:20.342Z,99.50
2019-05-10T22:34:47.091Z,99.80
2019-05-10T22:37:13.778Z,99.90
2019-05-10T22:39:40.635Z,99.80
2019-05-10T22:42:07.392Z,99.90
2019-05-10T22:44:34.051Z,99.80
2019-05-10T22:47:00.870Z,99.30
2019-05-10T22:49:27.529Z,99.50
2019-05-10T22:51:54.280Z,99.80
2019-05-10T22:54:21.201Z,99.60
2019-05-10T22:56:47.984Z,99.70
2019-05-10T22:59:14.668Z,99.80
2019-05-10T23:01:41.447Z,99.60
2019-05-10T23:04:08.321Z,99.50
2019-05-10T23:06:35.269Z,99.30
2019-05-10T23:09:02.442Z,99.30
2019-05-10T23:11:30.269Z,99.60
2019-05-10T23:13:56.993Z,99.70
2019-05-10T23:16:23.793Z,99.90
2019-05-10T23:18:50.583Z,99.60
2019-05-10T23:21:17.364Z,99.90
2019-05-10T23:23:44.426Z,99.90
2019-05-10T23:26:11.253Z,99.90
2019-05-10T23:28:50.047Z,99.90
2019-05-10T23:32:12.801Z,99.90
2019-05-10T23:34:08.627Z,99.70
2019-05-10T23:58:46.362Z,99.90
